sensor_id;sensor_type;location;lat;lon;timestamp;temperature;humidity
6210;DHT22;3138;52.550;13.148;2023-01-09T00:00:07;5.60;99.90
6210;DHT22;3138;52.550;13.148;2023-01-09T00:02:34;5.60;99.90
6210;DHT22;3138;52.550;13.148;2023-01-09T00:05:05;5.60;99.90
6210;DHT22;3138;52.550;13.148;2023-01-09T00:07:32;5.60;99.90
6210;DHT22;3138;52.550;13.148;2023-01-09T00:09:59;5.50;99.90
6210;DHT22;3138;52.550;13.148;2023-01-09T00:12:26;5.50;99.90
6210;DHT22;3138;52.550;13.148;2023-01-09T00:14:53;5.40;99.90
6210;DHT22;3138;52.550;13.148;2023-01-09T00:17:21;5.40;99.90
6210;DHT22;3138;52.550;13.148;2023-01-09T00:19:48;5.30;99.90
6210;DHT22;3138;52.550;13.148;2023-01-09T00:22:15;5.20;99.90
6210;DHT22;3138;52.550;13.148;2023-01-09T00:24:42;5.30;99.90
6210;DHT22;3138;52.550;13.148;2023-01-09T00:27:08;5.30;99.90
6210;DHT22;3138;52.550;13.148;2023-01-09T00:29:35;5.20;99.90
6210;DHT22;3138;52.550;13.148;2023-01-09T00:32:02;5.20;99.90
6210;DHT22;3138;52.550;13.148;2023-01-09T00:34:36;5.20;99.90
6210;DHT22;3138;52.550;13.148;2023-01-09T00:37:03;5.20;99.90
6210;DHT22;3138;52.550;13.148;2023-01-09T00:39:36;5.20;99.90
6210;DHT22;3138;52.550;13.148;2023-01-09T00:42:04;5.10;99.90
6210;DHT22;3138;52.550;13.148;2023-01-09T00:44:34;5.00;99.90
6210;DHT22;3138;52.550;13.148;2023-01-09T00:47:06;4.90;99.90
6210;DHT22;3138;52.550;13.148;2023-01-09T00:49:37;4.90;99.90
6210;DHT22;3138;52.550;13.148;2023-01-09T00:52:05;4.90;99.90
6210;DHT22;3138;52.550;13.148;2023-01-09T00:54:33;4.90;99.90
6210;DHT22;3138;52.550;13.148;2023-01-09T00:57:00;4.80;99.90
6210;DHT22;3138;52.550;13.148;2023-01-09T00:59:27;4.70;99.90
6210;DHT22;3138;52.550;13.148;2023-01-09T01:01:54;4.90;99.90
6210;DHT22;3138;52.550;13.148;2023-01-09T01:04:21;4.90;99.90
6210;DHT22;3138;52.550;13.148;2023-01-09T01:07:07;4.90;99.90
6210;DHT22;3138;52.550;13.148;2023-01-09T01:09:51;4.80;99.90
6210;DHT22;3138;52.550;13.148;2023-01-09T01:12:18;4.80;99.90
6210;DHT22;3138;52.550;13.148;2023-01-09T01:14:45;4.80;99.90
6210;DHT22;3138;52.550;13.148;2023-01-09T01:17:12;4.70;99.90
6210;DHT22;3138;52.550;13.148;2023-01-09T01:19:39;4.70;99.90
6210;DHT22;3138;52.550;13.148;2023-01-09T01:22:07;4.70;99.90
6210;DHT22;3138;52.550;13.148;2023-01-09T01:24:34;4.70;99.90
6210;DHT22;3138;52.550;13.148;2023-01-09T01:27:01;4.70;99.90
6210;DHT22;3138;52.550;13.148;2023-01-09T01:29:28;4.60;99.90
6210;DHT22;3138;52.550;13.148;2023-01-09T01:31:55;4.80;99.90
6210;DHT22;3138;52.550;13.148;2023-01-09T01:34:21;4.70;99.90
6210;DHT22;3138;52.550;13.148;2023-01-09T01:36:48;4.70;99.90
6210;DHT22;3138;52.550;13.148;2023-01-09T01:39:16;4.60;99.90
6210;DHT22;3138;52.550;13.148;2023-01-09T01:41:43;4.60;99.90
6210;DHT22;3138;52.550;13.148;2023-01-09T01:47:10;4.60;99.90
6210;DHT22;3138;52.550;13.148;2023-01-09T01:49:37;4.50;99.90
6210;DHT22;3138;52.550;13.148;2023-01-09T01:52:04;4.50;99.90
6210;DHT22;3138;52.550;13.148;2023-01-09T01:54:33;4.50;99.90
6210;DHT22;3138;52.550;13.148;2023-01-09T01:57:02;4.50;99.90
6210;DHT22;3138;52.550;13.148;2023-01-09T01:59:33;4.40;99.90
6210;DHT22;3138;52.550;13.148;2023-01-09T02:02:02;4.30;99.90
6210;DHT22;3138;52.550;13.148;2023-01-09T02:04:32;4.40;99.90
6210;DHT22;3138;52.550;13.148;2023-01-09T02:07:03;4.40;99.90
6210;DHT22;3138;52.550;13.148;2023-01-09T02:09:30;4.40;99.90
6210;DHT22;3138;52.550;13.148;2023-01-09T02:11:59;4.40;99.90
6210;DHT22;3138;52.550;13.148;2023-01-09T02:14:28;4.40;99.90
6210;DHT22;3138;52.550;13.148;2023-01-09T02:17:02;4.40;99.90
6210;DHT22;3138;52.550;13.148;2023-01-09T02:22:44;4.50;99.90
6210;DHT22;3138;52.550;13.148;2023-01-09T02:25:46;4.50;99.90
6210;DHT22;3138;52.550;13.148;2023-01-09T02:31:21;4.40;99.90
6210;DHT22;3138;52.550;13.148;2023-01-09T02:33:53;4.30;99.90
6210;DHT22;3138;52.550;13.148;2023-01-09T02:36:29;4.40;99.90
6210;DHT22;3138;52.550;13.148;2023-01-09T02:39:09;4.40;99.90
6210;DHT22;3138;52.550;13.148;2023-01-09T02:41:45;4.50;99.90
6210;DHT22;3138;52.550;13.148;2023-01-09T02:44:19;4.50;99.90
6210;DHT22;3138;52.550;13.148;2023-01-09T02:46:58;4.40;99.90
6210;DHT22;3138;52.550;13.148;2023-01-09T02:49:26;4.30;99.90
6210;DHT22;3138;52.550;13.148;2023-01-09T02:52:01;4.40;99.90
6210;DHT22;3138;52.550;13.148;2023-01-09T02:54:35;4.30;99.90
6210;DHT22;3138;52.550;13.148;2023-01-09T02:57:15;4.30;99.90
6210;DHT22;3138;52.550;13.148;2023-01-09T02:59:59;4.30;99.90
6210;DHT22;3138;52.550;13.148;2023-01-09T03:02:45;4.30;99.90
6210;DHT22;3138;52.550;13.148;2023-01-09T03:05:20;4.30;99.90
6210;DHT22;3138;52.550;13.148;2023-01-09T03:07:52;4.30;99.90
6210;DHT22;3138;52.550;13.148;2023-01-09T03:10:24;4.30;99.90
6210;DHT22;3138;52.550;13.148;2023-01-09T03:12:53;4.20;99.90
6210;DHT22;3138;52.550;13.148;2023-01-09T03:15:23;4.30;99.90
6210;DHT22;3138;52.550;13.148;2023-01-09T03:17:53;4.20;99.90
6210;DHT22;3138;52.550;13.148;2023-01-09T03:20:22;4.20;99.90
6210;DHT22;3138;52.550;13.148;2023-01-09T03:22:53;4.30;99.90
6210;DHT22;3138;52.550;13.148;2023-01-09T03:25:20;4.40;99.90
6210;DHT22;3138;52.550;13.148;2023-01-09T03:27:48;4.50;99.90
6210;DHT22;3138;52.550;13.148;2023-01-09T03:30:17;4.50;99.90
6210;DHT22;3138;52.550;13.148;2023-01-09T03:32:44;4.60;99.90
6210;DHT22;3138;52.550;13.148;2023-01-09T03:35:13;4.60;99.90
6210;DHT22;3138;52.550;13.148;2023-01-09T03:37:39;4.70;99.90
6210;DHT22;3138;52.550;13.148;2023-01-09T03:40:08;4.80;99.90
6210;DHT22;3138;52.550;13.148;2023-01-09T03:42:35;4.90;99.90
6210;DHT22;3138;52.550;13.148;2023-01-09T03:45:03;4.90;99.90
6210;DHT22;3138;52.550;13.148;2023-01-09T03:47:30;4.90;99.90
6210;DHT22;3138;52.550;13.148;2023-01-09T03:49:57;5.00;99.90
6210;DHT22;3138;52.550;13.148;2023-01-09T03:52:25;5.00;99.90
6210;DHT22;3138;52.550;13.148;2023-01-09T03:54:52;5.00;99.90
6210;DHT22;3138;52.550;13.148;2023-01-09T03:57:19;5.10;99.90
6210;DHT22;3138;52.550;13.148;2023-01-09T03:59:46;5.00;99.90
6210;DHT22;3138;52.550;13.148;2023-01-09T04:02:12;5.10;99.90
6210;DHT22;3138;52.550;13.148;2023-01-09T04:04:39;5.10;99.90
6210;DHT22;3138;52.550;13.148;2023-01-09T04:07:06;5.10;99.90
6210;DHT22;3138;52.550;13.148;2023-01-09T04:09:34;5.10;99.90
6210;DHT22;3138;52.550;13.148;2023-01-09T04:12:01;5.00;99.90
6210;DHT22;3138;52.550;13.148;2023-01-09T04:14:28;5.10;99.90
6210;DHT22;3138;52.550;13.148;2023-01-09T04:16:55;5.10;99.90
6210;DHT22;3138;52.550;13.148;2023-01-09T04:19:22;5.10;99.90
6210;DHT22;3138;52.550;13.148;2023-01-09T04:21:48;5.10;99.90
6210;DHT22;3138;52.550;13.148;2023-01-09T04:24:15;5.00;99.90
6210;DHT22;3138;52.550;13.148;2023-01-09T04:26:43;5.10;99.90
6210;DHT22;3138;52.550;13.148;2023-01-09T04:29:10;5.00;99.90
6210;DHT22;3138;52.550;13.148;2023-01-09T04:31:37;5.00;99.90
6210;DHT22;3138;52.550;13.148;2023-01-09T04:34:04;5.00;99.90
6210;DHT22;3138;52.550;13.148;2023-01-09T04:36:31;5.10;99.90
6210;DHT22;3138;52.550;13.148;2023-01-09T04:38:59;5.10;99.90
6210;DHT22;3138;52.550;13.148;2023-01-09T04:41:26;5.20;99.90
6210;DHT22;3138;52.550;13.148;2023-01-09T04:44:11;5.20;99.90
6210;DHT22;3138;52.550;13.148;2023-01-09T04:46:38;5.20;99.90
6210;DHT22;3138;52.550;13.148;2023-01-09T04:49:05;5.20;99.90
6210;DHT22;3138;52.550;13.148;2023-01-09T04:51:32;5.20;99.90
6210;DHT22;3138;52.550;13.148;2023-01-09T04:53:58;5.30;99.90
6210;DHT22;3138;52.550;13.148;2023-01-09T04:56:25;5.30;99.90
6210;DHT22;3138;52.550;13.148;2023-01-09T04:58:52;5.20;99.90
6210;DHT22;3138;52.550;13.148;2023-01-09T05:01:20;5.20;99.90
6210;DHT22;3138;52.550;13.148;2023-01-09T05:03:47;5.30;99.90
6210;DHT22;3138;52.550;13.148;2023-01-09T05:06:14;5.30;99.90
6210;DHT22;3138;52.550;13.148;2023-01-09T05:08:41;5.30;99.90
6210;DHT22;3138;52.550;13.148;2023-01-09T05:11:08;5.40;99.90
6210;DHT22;3138;52.550;13.148;2023-01-09T05:13:34;5.40;99.90
6210;DHT22;3138;52.550;13.148;2023-01-09T05:16:01;5.40;99.90
6210;DHT22;3138;52.550;13.148;2023-01-09T05:18:30;5.40;99.90
6210;DHT22;3138;52.550;13.148;2023-01-09T05:20:57;5.40;99.90
6210;DHT22;3138;52.550;13.148;2023-01-09T05:23:23;5.50;99.90
6210;DHT22;3138;52.550;13.148;2023-01-09T05:25:50;5.50;99.90
6210;DHT22;3138;52.550;13.148;2023-01-09T05:28:17;5.50;99.90
6210;DHT22;3138;52.550;13.148;2023-01-09T05:30:45;5.50;99.90
6210;DHT22;3138;52.550;13.148;2023-01-09T05:33:12;5.50;99.90
6210;DHT22;3138;52.550;13.148;2023-01-09T05:35:40;5.50;99.90
6210;DHT22;3138;52.550;13.148;2023-01-09T05:38:07;5.50;99.90
6210;DHT22;3138;52.550;13.148;2023-01-09T05:40:34;5.50;99.90
6210;DHT22;3138;52.550;13.148;2023-01-09T05:43:01;5.60;99.90
6210;DHT22;3138;52.550;13.148;2023-01-09T05:45:28;5.60;99.90
6210;DHT22;3138;52.550;13.148;2023-01-09T05:47:54;5.70;99.90
6210;DHT22;3138;52.550;13.148;2023-01-09T05:50:22;5.70;99.90
6210;DHT22;3138;52.550;13.148;2023-01-09T05:52:50;5.70;99.90
6210;DHT22;3138;52.550;13.148;2023-01-09T05:55:17;5.80;99.90
6210;DHT22;3138;52.550;13.148;2023-01-09T05:57:43;5.70;99.90
6210;DHT22;3138;52.550;13.148;2023-01-09T06:00:11;5.70;99.90
6210;DHT22;3138;52.550;13.148;2023-01-09T06:02:38;5.70;99.90
6210;DHT22;3138;52.550;13.148;2023-01-09T06:05:06;5.70;99.90
6210;DHT22;3138;52.550;13.148;2023-01-09T06:07:33;5.80;99.90
6210;DHT22;3138;52.550;13.148;2023-01-09T06:10:06;5.80;99.90
6210;DHT22;3138;52.550;13.148;2023-01-09T06:12:33;5.80;99.90
6210;DHT22;3138;52.550;13.148;2023-01-09T06:15:00;5.70;99.90
6210;DHT22;3138;52.550;13.148;2023-01-09T06:17:27;5.70;99.90
6210;DHT22;3138;52.550;13.148;2023-01-09T06:19:53;5.70;99.90
6210;DHT22;3138;52.550;13.148;2023-01-09T06:22:20;5.70;99.90
6210;DHT22;3138;52.550;13.148;2023-01-09T06:24:47;5.70;99.90
6210;DHT22;3138;52.550;13.148;2023-01-09T06:27:15;5.70;99.90
6210;DHT22;3138;52.550;13.148;2023-01-09T06:29:42;5.70;99.90
6210;DHT22;3138;52.550;13.148;2023-01-09T06:32:09;5.70;99.90
6210;DHT22;3138;52.550;13.148;2023-01-09T06:34:36;5.60;99.90
6210;DHT22;3138;52.550;13.148;2023-01-09T06:37:02;5.70;99.90
6210;DHT22;3138;52.550;13.148;2023-01-09T06:39:29;5.60;99.90
6210;DHT22;3138;52.550;13.148;2023-01-09T06:41:56;5.60;99.90
6210;DHT22;3138;52.550;13.148;2023-01-09T06:44:24;5.70;99.90
6210;DHT22;3138;52.550;13.148;2023-01-09T06:46:51;5.70;99.90
6210;DHT22;3138;52.550;13.148;2023-01-09T06:49:18;5.70;99.90
6210;DHT22;3138;52.550;13.148;2023-01-09T06:51:48;5.70;99.90
6210;DHT22;3138;52.550;13.148;2023-01-09T06:54:15;5.70;99.90
6210;DHT22;3138;52.550;13.148;2023-01-09T06:56:42;5.70;99.90
6210;DHT22;3138;52.550;13.148;2023-01-09T06:59:09;5.70;99.90
6210;DHT22;3138;52.550;13.148;2023-01-09T07:01:37;5.70;99.90
6210;DHT22;3138;52.550;13.148;2023-01-09T07:04:05;5.70;99.90
6210;DHT22;3138;52.550;13.148;2023-01-09T07:06:32;5.70;99.90
6210;DHT22;3138;52.550;13.148;2023-01-09T07:08:59;5.60;99.90
6210;DHT22;3138;52.550;13.148;2023-01-09T07:11:26;5.60;99.90
6210;DHT22;3138;52.550;13.148;2023-01-09T07:13:53;5.60;99.90
6210;DHT22;3138;52.550;13.148;2023-01-09T07:16:19;5.60;99.90
6210;DHT22;3138;52.550;13.148;2023-01-09T07:18:48;5.60;99.90
6210;DHT22;3138;52.550;13.148;2023-01-09T07:21:14;5.70;99.90
6210;DHT22;3138;52.550;13.148;2023-01-09T07:23:41;5.70;99.90
6210;DHT22;3138;52.550;13.148;2023-01-09T07:26:08;5.70;99.90
6210;DHT22;3138;52.550;13.148;2023-01-09T07:28:35;5.70;99.90
6210;DHT22;3138;52.550;13.148;2023-01-09T07:31:02;5.70;99.90
6210;DHT22;3138;52.550;13.148;2023-01-09T07:33:29;5.70;99.90
6210;DHT22;3138;52.550;13.148;2023-01-09T07:35:57;5.70;99.90
6210;DHT22;3138;52.550;13.148;2023-01-09T07:38:24;5.60;99.90
6210;DHT22;3138;52.550;13.148;2023-01-09T07:40:51;5.70;99.90
6210;DHT22;3138;52.550;13.148;2023-01-09T07:43:18;5.60;99.90
6210;DHT22;3138;52.550;13.148;2023-01-09T07:45:45;5.70;99.90
6210;DHT22;3138;52.550;13.148;2023-01-09T07:48:12;5.70;99.90
6210;DHT22;3138;52.550;13.148;2023-01-09T07:50:38;5.60;99.90
6210;DHT22;3138;52.550;13.148;2023-01-09T07:53:07;5.70;99.90
6210;DHT22;3138;52.550;13.148;2023-01-09T07:55:33;5.70;99.90
6210;DHT22;3138;52.550;13.148;2023-01-09T07:58:00;5.70;99.90
6210;DHT22;3138;52.550;13.148;2023-01-09T08:00:27;5.70;99.90
6210;DHT22;3138;52.550;13.148;2023-01-09T08:02:54;5.70;99.90
6210;DHT22;3138;52.550;13.148;2023-01-09T08:05:21;5.80;99.90
6210;DHT22;3138;52.550;13.148;2023-01-09T08:07:48;5.80;99.90
6210;DHT22;3138;52.550;13.148;2023-01-09T08:10:17;5.80;99.90
6210;DHT22;3138;52.550;13.148;2023-01-09T08:12:44;5.90;99.90
6210;DHT22;3138;52.550;13.148;2023-01-09T08:15:12;5.90;99.90
6210;DHT22;3138;52.550;13.148;2023-01-09T08:17:40;5.90;99.90
6210;DHT22;3138;52.550;13.148;2023-01-09T08:20:08;5.90;99.90
6210;DHT22;3138;52.550;13.148;2023-01-09T08:22:36;6.00;99.90
6210;DHT22;3138;52.550;13.148;2023-01-09T08:25:04;6.00;99.90
6210;DHT22;3138;52.550;13.148;2023-01-09T08:27:32;6.10;99.90
6210;DHT22;3138;52.550;13.148;2023-01-09T08:29:59;6.10;99.90
6210;DHT22;3138;52.550;13.148;2023-01-09T08:32:26;6.10;99.90
6210;DHT22;3138;52.550;13.148;2023-01-09T08:34:53;6.10;99.90
6210;DHT22;3138;52.550;13.148;2023-01-09T08:37:20;6.20;99.90
6210;DHT22;3138;52.550;13.148;2023-01-09T08:39:46;6.20;99.90
6210;DHT22;3138;52.550;13.148;2023-01-09T08:42:13;6.20;99.90
6210;DHT22;3138;52.550;13.148;2023-01-09T08:44:59;6.30;99.90
6210;DHT22;3138;52.550;13.148;2023-01-09T08:47:43;6.20;99.90
6210;DHT22;3138;52.550;13.148;2023-01-09T08:50:10;6.20;99.90
6210;DHT22;3138;52.550;13.148;2023-01-09T08:52:37;6.30;99.90
6210;DHT22;3138;52.550;13.148;2023-01-09T08:55:05;6.30;99.90
6210;DHT22;3138;52.550;13.148;2023-01-09T08:57:32;6.20;99.90
6210;DHT22;3138;52.550;13.148;2023-01-09T09:00:00;6.30;99.90
6210;DHT22;3138;52.550;13.148;2023-01-09T09:02:27;6.30;99.90
6210;DHT22;3138;52.550;13.148;2023-01-09T09:04:54;6.30;99.90
6210;DHT22;3138;52.550;13.148;2023-01-09T09:07:21;6.40;99.90
6210;DHT22;3138;52.550;13.148;2023-01-09T09:09:51;6.50;99.90
6210;DHT22;3138;52.550;13.148;2023-01-09T09:12:19;6.50;99.90
6210;DHT22;3138;52.550;13.148;2023-01-09T09:14:46;6.50;99.90
6210;DHT22;3138;52.550;13.148;2023-01-09T09:17:31;6.50;99.90
6210;DHT22;3138;52.550;13.148;2023-01-09T09:19:58;6.50;99.90
6210;DHT22;3138;52.550;13.148;2023-01-09T09:22:25;6.50;99.90
6210;DHT22;3138;52.550;13.148;2023-01-09T09:24:52;6.60;99.90
6210;DHT22;3138;52.550;13.148;2023-01-09T09:27:19;6.60;99.90
6210;DHT22;3138;52.550;13.148;2023-01-09T09:29:46;6.60;99.90
6210;DHT22;3138;52.550;13.148;2023-01-09T09:32:13;6.70;99.90
6210;DHT22;3138;52.550;13.148;2023-01-09T09:34:41;6.70;99.90
6210;DHT22;3138;52.550;13.148;2023-01-09T09:37:08;6.70;99.90
6210;DHT22;3138;52.550;13.148;2023-01-09T09:39:35;6.80;99.90
6210;DHT22;3138;52.550;13.148;2023-01-09T09:42:16;6.90;99.90
6210;DHT22;3138;52.550;13.148;2023-01-09T09:45:17;7.00;99.90
6210;DHT22;3138;52.550;13.148;2023-01-09T09:47:52;7.00;99.90
6210;DHT22;3138;52.550;13.148;2023-01-09T09:53:47;7.10;99.90
6210;DHT22;3138;52.550;13.148;2023-01-09T09:56:19;7.10;99.90
6210;DHT22;3138;52.550;13.148;2023-01-09T09:58:49;7.20;99.90
6210;DHT22;3138;52.550;13.148;2023-01-09T10:01:19;7.20;99.90
6210;DHT22;3138;52.550;13.148;2023-01-09T10:03:50;7.20;99.90
6210;DHT22;3138;52.550;13.148;2023-01-09T10:06:24;7.20;99.90
6210;DHT22;3138;52.550;13.148;2023-01-09T10:08:59;7.30;99.90
6210;DHT22;3138;52.550;13.148;2023-01-09T10:11:36;7.30;99.90
6210;DHT22;3138;52.550;13.148;2023-01-09T10:14:05;7.40;99.90
6210;DHT22;3138;52.550;13.148;2023-01-09T10:16:47;7.50;99.90
6210;DHT22;3138;52.550;13.148;2023-01-09T10:19:27;7.70;99.90
6210;DHT22;3138;52.550;13.148;2023-01-09T10:22:06;7.90;99.90
6210;DHT22;3138;52.550;13.148;2023-01-09T10:24:58;8.20;99.90
6210;DHT22;3138;52.550;13.148;2023-01-09T10:27:35;8.30;99.90
6210;DHT22;3138;52.550;13.148;2023-01-09T10:30:20;8.30;99.90
6210;DHT22;3138;52.550;13.148;2023-01-09T10:32:58;8.30;99.90
6210;DHT22;3138;52.550;13.148;2023-01-09T10:38:30;8.10;99.90
6210;DHT22;3138;52.550;13.148;2023-01-09T10:41:03;8.00;99.90
6210;DHT22;3138;52.550;13.148;2023-01-09T10:43:36;7.90;99.90
6210;DHT22;3138;52.550;13.148;2023-01-09T10:46:09;7.90;99.90
6210;DHT22;3138;52.550;13.148;2023-01-09T10:48:40;7.90;99.90
6210;DHT22;3138;52.550;13.148;2023-01-09T10:51:16;7.90;99.90
6210;DHT22;3138;52.550;13.148;2023-01-09T10:53:47;8.00;99.90
6210;DHT22;3138;52.550;13.148;2023-01-09T10:56:20;7.90;99.90
6210;DHT22;3138;52.550;13.148;2023-01-09T10:58:48;7.90;99.90
6210;DHT22;3138;52.550;13.148;2023-01-09T11:01:17;7.90;99.90
6210;DHT22;3138;52.550;13.148;2023-01-09T11:03:44;7.80;99.90
6210;DHT22;3138;52.550;13.148;2023-01-09T11:06:18;7.80;99.90
6210;DHT22;3138;52.550;13.148;2023-01-09T11:08:47;7.80;99.90
6210;DHT22;3138;52.550;13.148;2023-01-09T11:11:30;7.70;99.90
6210;DHT22;3138;52.550;13.148;2023-01-09T11:14:03;7.70;99.90
6210;DHT22;3138;52.550;13.148;2023-01-09T11:16:31;7.70;99.90
6210;DHT22;3138;52.550;13.148;2023-01-09T11:18:59;7.70;99.90
6210;DHT22;3138;52.550;13.148;2023-01-09T11:21:32;7.80;99.90
6210;DHT22;3138;52.550;13.148;2023-01-09T11:27:20;7.90;99.90
6210;DHT22;3138;52.550;13.148;2023-01-09T11:30:16;7.90;99.90
6210;DHT22;3138;52.550;13.148;2023-01-09T11:32:45;7.90;99.90
6210;DHT22;3138;52.550;13.148;2023-01-09T11:35:18;7.90;99.90
6210;DHT22;3138;52.550;13.148;2023-01-09T11:37:47;7.90;99.90
6210;DHT22;3138;52.550;13.148;2023-01-09T11:40:18;7.90;99.90
6210;DHT22;3138;52.550;13.148;2023-01-09T11:45:43;7.90;99.90
6210;DHT22;3138;52.550;13.148;2023-01-09T11:48:25;7.90;99.90
6210;DHT22;3138;52.550;13.148;2023-01-09T11:50:55;7.80;99.90
6210;DHT22;3138;52.550;13.148;2023-01-09T11:53:23;7.90;99.90
6210;DHT22;3138;52.550;13.148;2023-01-09T11:55:55;7.90;99.90
6210;DHT22;3138;52.550;13.148;2023-01-09T11:58:23;8.00;99.90
6210;DHT22;3138;52.550;13.148;2023-01-09T12:00:59;8.00;74.80
6210;DHT22;3138;52.550;13.148;2023-01-09T12:03:43;8.10;1.00
6210;DHT22;3138;52.550;13.148;2023-01-09T12:06:19;8.20;1.00
6210;DHT22;3138;52.550;13.148;2023-01-09T12:08:55;8.30;1.00
6210;DHT22;3138;52.550;13.148;2023-01-09T12:11:28;8.50;99.90
6210;DHT22;3138;52.550;13.148;2023-01-09T12:14:25;8.50;99.90
6210;DHT22;3138;52.550;13.148;2023-01-09T12:17:18;8.50;99.90
6210;DHT22;3138;52.550;13.148;2023-01-09T12:20:08;8.40;1.00
6210;DHT22;3138;52.550;13.148;2023-01-09T12:22:43;8.40;28.90
6210;DHT22;3138;52.550;13.148;2023-01-09T12:25:21;8.30;1.00
6210;DHT22;3138;52.550;13.148;2023-01-09T12:27:59;8.10;1.00
6210;DHT22;3138;52.550;13.148;2023-01-09T12:30:40;8.00;1.00
6210;DHT22;3138;52.550;13.148;2023-01-09T12:33:21;8.00;1.00
6210;DHT22;3138;52.550;13.148;2023-01-09T12:36:08;7.90;1.00
6210;DHT22;3138;52.550;13.148;2023-01-09T12:38:40;8.00;1.00
6210;DHT22;3138;52.550;13.148;2023-01-09T12:41:19;8.10;1.00
6210;DHT22;3138;52.550;13.148;2023-01-09T12:44:03;8.30;1.00
6210;DHT22;3138;52.550;13.148;2023-01-09T12:46:40;8.50;1.00
6210;DHT22;3138;52.550;13.148;2023-01-09T12:49:29;8.50;99.90
6210;DHT22;3138;52.550;13.148;2023-01-09T12:52:04;8.40;1.00
6210;DHT22;3138;52.550;13.148;2023-01-09T12:54:37;8.40;1.00
6210;DHT22;3138;52.550;13.148;2023-01-09T12:57:11;8.40;1.00
6210;DHT22;3138;52.550;13.148;2023-01-09T12:59:42;8.20;1.00
6210;DHT22;3138;52.550;13.148;2023-01-09T13:02:18;8.20;1.00
6210;DHT22;3138;52.550;13.148;2023-01-09T13:04:51;8.10;1.00
6210;DHT22;3138;52.550;13.148;2023-01-09T13:07:27;8.00;1.00
6210;DHT22;3138;52.550;13.148;2023-01-09T13:09:58;8.10;1.00
6210;DHT22;3138;52.550;13.148;2023-01-09T13:12:32;8.10;1.00
6210;DHT22;3138;52.550;13.148;2023-01-09T13:15:04;8.10;1.00
6210;DHT22;3138;52.550;13.148;2023-01-09T13:17:37;8.10;1.00
6210;DHT22;3138;52.550;13.148;2023-01-09T13:20:18;8.20;1.00
6210;DHT22;3138;52.550;13.148;2023-01-09T13:22:46;8.30;1.00
6210;DHT22;3138;52.550;13.148;2023-01-09T13:25:40;8.30;1.00
6210;DHT22;3138;52.550;13.148;2023-01-09T13:28:14;8.40;1.00
6210;DHT22;3138;52.550;13.148;2023-01-09T13:31:13;8.40;99.90
6210;DHT22;3138;52.550;13.148;2023-01-09T13:33:43;8.40;99.90
6210;DHT22;3138;52.550;13.148;2023-01-09T13:36:23;8.40;99.90
6210;DHT22;3138;52.550;13.148;2023-01-09T13:38:50;8.50;99.90
6210;DHT22;3138;52.550;13.148;2023-01-09T13:41:19;8.40;99.90
6210;DHT22;3138;52.550;13.148;2023-01-09T13:44:04;8.50;42.10
6210;DHT22;3138;52.550;13.148;2023-01-09T13:46:35;8.40;99.90
6210;DHT22;3138;52.550;13.148;2023-01-09T13:49:03;8.50;99.90
6210;DHT22;3138;52.550;13.148;2023-01-09T13:51:56;8.40;99.90
6210;DHT22;3138;52.550;13.148;2023-01-09T13:57:27;8.30;1.00
6210;DHT22;3138;52.550;13.148;2023-01-09T13:59:58;8.20;1.00
6210;DHT22;3138;52.550;13.148;2023-01-09T14:03:16;8.10;1.00
6210;DHT22;3138;52.550;13.148;2023-01-09T14:06:04;8.10;1.00
6210;DHT22;3138;52.550;13.148;2023-01-09T14:08:38;8.10;39.10
6210;DHT22;3138;52.550;13.148;2023-01-09T14:11:07;8.00;99.90
6210;DHT22;3138;52.550;13.148;2023-01-09T14:13:39;8.00;99.90
6210;DHT22;3138;52.550;13.148;2023-01-09T14:16:13;8.00;1.00
6210;DHT22;3138;52.550;13.148;2023-01-09T14:18:46;7.90;1.00
6210;DHT22;3138;52.550;13.148;2023-01-09T14:21:14;7.90;1.00
6210;DHT22;3138;52.550;13.148;2023-01-09T14:23:49;7.90;1.00
6210;DHT22;3138;52.550;13.148;2023-01-09T14:26:18;7.90;1.00
6210;DHT22;3138;52.550;13.148;2023-01-09T14:28:46;7.80;1.00
6210;DHT22;3138;52.550;13.148;2023-01-09T14:31:26;7.80;1.00
6210;DHT22;3138;52.550;13.148;2023-01-09T14:34:25;7.80;5.90
6210;DHT22;3138;52.550;13.148;2023-01-09T14:36:56;7.80;8.60
6210;DHT22;3138;52.550;13.148;2023-01-09T14:39:26;7.80;99.90
6210;DHT22;3138;52.550;13.148;2023-01-09T14:41:57;7.70;1.00
6210;DHT22;3138;52.550;13.148;2023-01-09T14:44:33;7.60;1.00
6210;DHT22;3138;52.550;13.148;2023-01-09T14:47:09;7.50;1.00
6210;DHT22;3138;52.550;13.148;2023-01-09T14:49:41;7.40;29.20
6210;DHT22;3138;52.550;13.148;2023-01-09T14:52:21;7.30;99.90
6210;DHT22;3138;52.550;13.148;2023-01-09T14:54:51;7.20;99.90
6210;DHT22;3138;52.550;13.148;2023-01-09T14:57:26;7.20;99.90
6210;DHT22;3138;52.550;13.148;2023-01-09T14:59:57;7.10;1.00
6210;DHT22;3138;52.550;13.148;2023-01-09T15:02:27;7.10;1.00
6210;DHT22;3138;52.550;13.148;2023-01-09T15:04:58;7.10;1.00
6210;DHT22;3138;52.550;13.148;2023-01-09T15:07:26;7.00;34.00
6210;DHT22;3138;52.550;13.148;2023-01-09T15:10:01;6.90;99.90
6210;DHT22;3138;52.550;13.148;2023-01-09T15:12:30;6.90;99.90
6210;DHT22;3138;52.550;13.148;2023-01-09T15:14:58;6.90;1.00
6210;DHT22;3138;52.550;13.148;2023-01-09T15:17:29;6.90;1.00
6210;DHT22;3138;52.550;13.148;2023-01-09T15:19:57;6.90;1.00
6210;DHT22;3138;52.550;13.148;2023-01-09T15:22:28;6.90;10.20
6210;DHT22;3138;52.550;13.148;2023-01-09T15:24:55;6.80;99.90
6210;DHT22;3138;52.550;13.148;2023-01-09T15:27:23;6.80;99.90
6210;DHT22;3138;52.550;13.148;2023-01-09T15:29:51;6.80;99.90
6210;DHT22;3138;52.550;13.148;2023-01-09T15:32:22;6.80;99.90
6210;DHT22;3138;52.550;13.148;2023-01-09T15:34:51;6.80;99.90
6210;DHT22;3138;52.550;13.148;2023-01-09T15:37:25;6.80;1.00
6210;DHT22;3138;52.550;13.148;2023-01-09T15:39:53;6.80;1.00
6210;DHT22;3138;52.550;13.148;2023-01-09T15:42:25;6.80;1.00
6210;DHT22;3138;52.550;13.148;2023-01-09T15:45:20;6.80;1.00
6210;DHT22;3138;52.550;13.148;2023-01-09T15:47:48;6.80;1.00
6210;DHT22;3138;52.550;13.148;2023-01-09T15:53:41;6.80;1.00
6210;DHT22;3138;52.550;13.148;2023-01-09T15:58:38;6.70;1.00
6210;DHT22;3138;52.550;13.148;2023-01-09T16:01:11;6.70;99.90
6210;DHT22;3138;52.550;13.148;2023-01-09T16:03:40;6.70;99.90
6210;DHT22;3138;52.550;13.148;2023-01-09T16:06:09;6.60;99.90
6210;DHT22;3138;52.550;13.148;2023-01-09T16:08:38;6.60;99.90
6210;DHT22;3138;52.550;13.148;2023-01-09T16:11:07;6.60;99.90
6210;DHT22;3138;52.550;13.148;2023-01-09T16:13:41;6.50;99.90
6210;DHT22;3138;52.550;13.148;2023-01-09T16:16:10;6.50;99.90
6210;DHT22;3138;52.550;13.148;2023-01-09T16:18:39;6.50;99.90
6210;DHT22;3138;52.550;13.148;2023-01-09T16:21:23;6.50;99.90
6210;DHT22;3138;52.550;13.148;2023-01-09T16:23:56;6.30;99.90
6210;DHT22;3138;52.550;13.148;2023-01-09T16:26:25;6.10;99.90
6210;DHT22;3138;52.550;13.148;2023-01-09T16:28:54;6.00;99.90
6210;DHT22;3138;52.550;13.148;2023-01-09T16:31:23;5.80;99.90
6210;DHT22;3138;52.550;13.148;2023-01-09T16:33:57;5.70;99.90
6210;DHT22;3138;52.550;13.148;2023-01-09T16:36:26;5.60;1.00
6210;DHT22;3138;52.550;13.148;2023-01-09T16:38:54;5.50;1.00
6210;DHT22;3138;52.550;13.148;2023-01-09T16:41:21;5.60;1.00
6210;DHT22;3138;52.550;13.148;2023-01-09T16:44:08;5.70;1.00
6210;DHT22;3138;52.550;13.148;2023-01-09T16:46:36;5.70;1.00
6210;DHT22;3138;52.550;13.148;2023-01-09T16:49:08;5.60;1.00
6210;DHT22;3138;52.550;13.148;2023-01-09T16:51:39;5.60;1.00
6210;DHT22;3138;52.550;13.148;2023-01-09T16:54:06;5.40;1.00
6210;DHT22;3138;52.550;13.148;2023-01-09T16:56:34;5.40;1.00
6210;DHT22;3138;52.550;13.148;2023-01-09T16:59:01;5.40;1.00